Hauptseite
METAR-TAF:

METAR-TAF

Flughäfen :

Flughafen Hamburg

Hamburg, Deutschland

Breite: 53-38N, Länge: 010-00E, Höhe: 16 m

Beobachtung

Neuester Wetterbericht von vor 22 Minuten, um 15:50 UTC
Wind 6 kt aus Süd/Südost
Temperatur 10°C
Luftfeuchtigkeit 87%
Luftdruck 1027 hPa
Sichtweite 10 km oder mehr
keine Wolken unter 1500 m und keine Kumulonimbus oder Gewitterwolken

METAR: EDDH 141550Z 16006KT CAVOK 10/08 Q1027 NOSIG

Zeit: 17:12 (16:12 UTC)

Prognose

Neuester Wetterbericht von vor 42 Minuten, um 15:30 UTC
Gültige Prognose vom 14 um 15 UTC bis 15 um 18 UTC
Wind 7 kt aus Süd/Südost
Sichtweite: 8000 m
Zeitweise
vom 15 um 03 UTC bis 15 um 09 UTC
Sichtweite: 2500 m
Teilweise durch Nebel bedeckt

TAF: EDDH 141530Z 1415/1518 15007KT 8000 NSC TEMPO 1503/1509 2500 PRFG

Wetterbeobachtungen und Prognosen von mehr als 4000 Flughäfen (METAR und TAF Bericht).

Die verfügbaren Stationen werden durch gelbe und rote Markierungen auf der Karte dargestellt.

Führen Sie die Maus auf sie, um den Namen der Station zu sehen.

Darauf klicken, um die Beobachtung von Wetterbeobachtungen und Prognosen zu sehen.

Um die Karte zu ändern : klicken Sie auf den grünen Tasten mit einem schwarzen Kreuz Zum Vergrößern, auf den grünen Button mit einem Gedankenstrich zu verkleinern, oder auf die grünen Pfeile für benachbarte Karten.


METAR-TAF: